createdAt,value
2023-03-22T00:00:47.124Z,0.09
2023-03-22T00:01:47.924Z,0.09
2023-03-22T00:02:48.835Z,0.13
2023-03-22T00:03:49.593Z,0.13
2023-03-22T00:03:58.284Z,0.09
2023-03-22T00:04:58.471Z,0.13
2023-03-22T00:05:59.233Z,0.09
2023-03-22T00:07:00.041Z,0.09
2023-03-22T00:08:00.673Z,0.09
2023-03-22T00:09:01.399Z,0.09
2023-03-22T00:10:01.482Z,0.09
2023-03-22T00:11:02.111Z,0.09
2023-03-22T00:12:02.973Z,0.09
2023-03-22T00:13:03.650Z,0.09
2023-03-22T00:14:04.346Z,0.09
2023-03-22T00:14:12.962Z,0.09
2023-03-22T00:15:13.629Z,0.09
2023-03-22T00:16:14.463Z,0.06
2023-03-22T00:17:15.149Z,0.09
2023-03-22T00:18:15.839Z,0.09
2023-03-22T00:19:16.478Z,0.09
2023-03-22T00:20:19.608Z,0.09
2023-03-22T00:21:17.869Z,0.09
2023-03-22T00:22:18.647Z,0.09
2023-03-22T00:23:19.236Z,0.09
2023-03-22T00:24:19.915Z,0.09
2023-03-22T00:25:20.664Z,0.09
2023-03-22T00:25:29.242Z,0.09
2023-03-22T00:26:29.925Z,0.09
2023-03-22T00:27:30.742Z,0.09
2023-03-22T00:28:31.389Z,0.09
2023-03-22T00:29:32.089Z,0.09
2023-03-22T00:30:32.217Z,0.09
2023-03-22T00:31:33.050Z,0.09
2023-03-22T00:32:33.984Z,0.09
2023-03-22T00:33:34.737Z,0.09
2023-03-22T00:34:35.537Z,0.09
2023-03-22T00:35:36.239Z,0.09
2023-03-22T00:36:36.930Z,0.09
2023-03-22T00:36:46.569Z,0.09
2023-03-22T00:37:47.338Z,0.09
2023-03-22T00:38:47.846Z,0.09
2023-03-22T00:39:48.566Z,0.09
2023-03-22T00:40:49.192Z,0.09
2023-03-22T00:41:49.933Z,0.09
2023-03-22T00:42:50.671Z,0.09
2023-03-22T00:43:51.399Z,0.09
2023-03-22T00:44:52.247Z,0.09
2023-03-22T00:45:52.918Z,0.09
2023-03-22T00:46:53.848Z,0.09
2023-03-22T00:47:54.418Z,0.09
2023-03-22T00:48:07.436Z,0.09
2023-03-22T00:49:07.958Z,0.09
2023-03-22T00:50:08.650Z,0.09
2023-03-22T00:51:09.348Z,0.09
2023-03-22T00:52:10.019Z,0.09
2023-03-22T00:53:10.760Z,0.09
2023-03-22T00:54:11.381Z,0.09
2023-03-22T00:55:12.129Z,0.09
2023-03-22T00:56:12.862Z,0.09
2023-03-22T00:57:13.791Z,0.09
2023-03-22T00:58:14.544Z,0.09
2023-03-22T00:58:23.210Z,0.09
2023-03-22T00:59:23.331Z,0.09
2023-03-22T01:00:23.954Z,0.09
2023-03-22T01:01:24.637Z,0.09
2023-03-22T01:02:25.308Z,0.09
2023-03-22T01:03:26.210Z,0.09
2023-03-22T01:04:26.334Z,0.09
2023-03-22T01:05:26.935Z,0.09
2023-03-22T01:06:27.642Z,0.09
2023-03-22T01:07:28.362Z,0.09
2023-03-22T01:08:39.290Z,0.09
2023-03-22T01:09:39.293Z,0.09
2023-03-22T01:10:40.406Z,0.09
2023-03-22T01:11:40.888Z,0.09
2023-03-22T01:12:41.462Z,0.09
2023-03-22T01:13:42.287Z,0.09
2023-03-22T01:14:43.073Z,0.09
2023-03-22T01:15:43.692Z,0.09
2023-03-22T01:16:44.503Z,0.09
2023-03-22T01:17:45.323Z,0.09
2023-03-22T01:18:46.271Z,0.09
2023-03-22T01:19:46.925Z,0.09
2023-03-22T01:19:55.511Z,0.09
2023-03-22T01:20:56.183Z,0.09
2023-03-22T01:21:57.162Z,0.09
2023-03-22T01:22:57.876Z,0.09
2023-03-22T01:23:58.659Z,0.09
2023-03-22T01:24:59.577Z,0.09
2023-03-22T01:26:00.274Z,0.09
2023-03-22T01:27:00.886Z,0.09
2023-03-22T01:28:01.485Z,0.09
2023-03-22T01:29:02.198Z,0.09
2023-03-22T01:30:03.047Z,0.09
2023-03-22T01:30:11.676Z,0.09
2023-03-22T01:31:12.409Z,0.09
2023-03-22T01:32:12.902Z,0.09
2023-03-22T01:33:13.586Z,0.09
2023-03-22T01:34:14.380Z,0.09
2023-03-22T01:35:15.170Z,0.09
2023-03-22T01:36:15.916Z,0.09
2023-03-22T01:37:16.673Z,0.09
2023-03-22T01:38:17.574Z,0.09
2023-03-22T01:39:18.323Z,0.09
2023-03-22T01:40:18.978Z,0.09
2023-03-22T01:41:19.927Z,0.09
2023-03-22T01:41:28.521Z,0.09
2023-03-22T01:42:29.256Z,0.09
2023-03-22T01:43:29.330Z,0.09
2023-03-22T01:44:29.983Z,0.09
2023-03-22T01:45:30.143Z,0.09
2023-03-22T01:46:30.902Z,0.09
2023-03-22T01:47:31.455Z,0.09
2023-03-22T01:48:32.051Z,0.09
2023-03-22T01:49:32.923Z,0.09
2023-03-22T01:50:33.951Z,0.09
2023-03-22T01:51:34.841Z,0.09
2023-03-22T01:51:43.939Z,0.09
2023-03-22T01:52:44.002Z,0.09
2023-03-22T01:53:44.703Z,0.09
2023-03-22T01:54:45.450Z,0.09
2023-03-22T01:55:46.125Z,0.09
2023-03-22T01:56:47.023Z,0.09
2023-03-22T01:57:47.534Z,0.09
2023-03-22T01:58:48.268Z,0.09
2023-03-22T01:59:48.532Z,0.09
2023-03-22T02:00:49.715Z,0.09
2023-03-22T02:01:49.718Z,0.13
2023-03-22T02:02:50.410Z,0.13
2023-03-22T02:02:58.987Z,0.13
2023-03-22T02:03:59.675Z,0.09
2023-03-22T02:05:00.341Z,0.09
2023-03-22T02:06:01.027Z,0.09
2023-03-22T02:07:01.296Z,0.09
2023-03-22T02:08:01.948Z,0.09
2023-03-22T02:09:02.645Z,0.09
2023-03-22T02:10:03.380Z,0.09
2023-03-22T02:11:04.049Z,0.09
2023-03-22T02:12:04.893Z,0.09
2023-03-22T02:13:05.106Z,0.09
2023-03-22T02:13:14.656Z,0.09
2023-03-22T02:14:14.589Z,0.09
2023-03-22T02:15:14.588Z,0.09
2023-03-22T02:16:15.349Z,0.09
2023-03-22T02:17:15.932Z,0.09
2023-03-22T02:18:16.712Z,0.09
2023-03-22T02:19:17.390Z,0.09
2023-03-22T02:20:18.068Z,0.09
2023-03-22T02:21:18.677Z,0.09
2023-03-22T02:22:19.294Z,0.09
2023-03-22T02:23:20.054Z,0.09
2023-03-22T02:23:30.220Z,0.09
2023-03-22T02:24:29.252Z,0.09
2023-03-22T02:25:29.298Z,0.09
2023-03-22T02:26:30.024Z,0.09
2023-03-22T02:27:30.671Z,0.09
2023-03-22T02:28:31.271Z,0.09
2023-03-22T02:29:32.075Z,0.09
2023-03-22T02:30:32.841Z,0.09
2023-03-22T02:31:33.797Z,0.09
2023-03-22T02:32:34.684Z,0.09
2023-03-22T02:33:35.675Z,0.09
2023-03-22T02:34:36.394Z,0.09
2023-03-22T02:34:45.010Z,0.09
2023-03-22T02:35:45.766Z,0.09
2023-03-22T02:36:46.313Z,0.09
2023-03-22T02:37:46.945Z,0.09
2023-03-22T02:38:47.564Z,0.09
2023-03-22T02:39:48.491Z,0.09
2023-03-22T02:40:49.445Z,0.09
2023-03-22T02:41:50.185Z,0.09
2023-03-22T02:42:51.002Z,0.09
2023-03-22T02:43:51.790Z,0.09
2023-03-22T02:44:52.583Z,0.09
2023-03-22T02:45:52.699Z,0.09
2023-03-22T02:46:01.327Z,0.09
2023-03-22T02:47:01.737Z,0.09
2023-03-22T02:48:02.501Z,0.09
2023-03-22T02:49:03.030Z,0.09
2023-03-22T02:50:03.649Z,0.09
2023-03-22T02:51:04.154Z,0.09
2023-03-22T02:52:05.089Z,0.09
2023-03-22T02:53:05.790Z,0.09
2023-03-22T02:54:06.418Z,0.09
2023-03-22T02:55:07.093Z,0.09
2023-03-22T02:56:08.014Z,0.09
2023-03-22T02:56:16.764Z,0.09
2023-03-22T02:57:17.349Z,0.09
2023-03-22T02:58:18.087Z,0.09
2023-03-22T02:59:18.740Z,0.09
2023-03-22T03:00:19.359Z,0.09
2023-03-22T03:01:20.326Z,0.09
2023-03-22T03:02:20.869Z,0.09
2023-03-22T03:03:21.434Z,0.09
2023-03-22T03:04:22.188Z,0.09
2023-03-22T03:05:22.839Z,0.09
2023-03-22T03:06:23.535Z,0.09
2023-03-22T03:06:32.185Z,0.09
2023-03-22T03:07:32.798Z,0.09
2023-03-22T03:08:33.462Z,0.09
2023-03-22T03:09:34.148Z,0.09
2023-03-22T03:10:35.015Z,0.09
2023-03-22T03:11:35.798Z,0.09
2023-03-22T03:12:36.414Z,0.09
2023-03-22T03:13:37.135Z,0.09
2023-03-22T03:14:37.920Z,0.09
2023-03-22T03:15:38.531Z,0.09
2023-03-22T03:16:39.207Z,0.09
2023-03-22T03:16:47.840Z,0.09
2023-03-22T03:17:48.604Z,0.09
2023-03-22T03:18:49.268Z,0.09
2023-03-22T03:19:49.900Z,0.09
2023-03-22T03:20:50.657Z,0.09
2023-03-22T03:21:51.450Z,0.09
2023-03-22T03:22:52.409Z,0.09
2023-03-22T03:23:53.363Z,0.09
2023-03-22T03:24:54.011Z,0.09
2023-03-22T03:25:54.058Z,0.09
2023-03-22T03:26:54.863Z,0.09
2023-03-22T03:27:54.997Z,0.09
2023-03-22T03:28:04.658Z,0.09
2023-03-22T03:29:05.445Z,0.09
2023-03-22T03:30:06.222Z,0.09
2023-03-22T03:31:06.931Z,0.09
2023-03-22T03:32:07.623Z,0.09
2023-03-22T03:33:08.549Z,0.09
2023-03-22T03:34:09.224Z,0.09
2023-03-22T03:35:09.966Z,0.09
2023-03-22T03:36:10.737Z,0.09
2023-03-22T03:37:11.390Z,0.09
2023-03-22T03:38:12.168Z,0.09
2023-03-22T03:38:20.896Z,0.09
2023-03-22T03:39:21.514Z,0.09
2023-03-22T03:40:22.192Z,0.09
2023-03-22T03:41:22.861Z,0.09
2023-03-22T03:42:23.668Z,0.09
2023-03-22T03:43:24.287Z,0.09
2023-03-22T03:44:24.897Z,0.09
2023-03-22T03:45:25.747Z,0.09
2023-03-22T03:46:26.398Z,0.09
2023-03-22T03:47:27.098Z,0.09
2023-03-22T03:48:28.006Z,0.09
2023-03-22T03:49:28.588Z,0.09
2023-03-22T03:49:37.762Z,0.09
2023-03-22T03:50:38.601Z,0.09
2023-03-22T03:51:39.008Z,0.09
2023-03-22T03:52:39.668Z,0.09
2023-03-22T03:53:40.234Z,0.09
2023-03-22T03:54:40.837Z,0.09
2023-03-22T03:55:41.569Z,0.09
2023-03-22T03:56:42.335Z,0.09
2023-03-22T03:57:43.204Z,0.09
2023-03-22T03:58:43.930Z,0.09
2023-03-22T03:59:44.659Z,0.09
2023-03-22T03:59:53.381Z,0.09
2023-03-22T04:00:54.049Z,0.09
2023-03-22T04:01:54.321Z,0.09
2023-03-22T04:02:55.082Z,0.09
2023-03-22T04:03:55.859Z,0.09
2023-03-22T04:04:56.469Z,0.09
2023-03-22T04:05:57.165Z,0.09
2023-03-22T04:06:57.862Z,0.09
2023-03-22T04:07:58.549Z,0.09
2023-03-22T04:08:59.231Z,0.09
2023-03-22T04:09:59.987Z,0.09
2023-03-22T04:10:08.693Z,0.09
2023-03-22T04:11:09.411Z,0.09
2023-03-22T04:12:10.097Z,0.09
2023-03-22T04:13:11.047Z,0.09
2023-03-22T04:14:11.343Z,0.09
2023-03-22T04:15:11.953Z,0.09
2023-03-22T04:16:12.721Z,0.09
2023-03-22T04:17:13.376Z,0.09
2023-03-22T04:18:14.128Z,0.09
2023-03-22T04:19:14.826Z,0.09
2023-03-22T04:20:15.473Z,0.09
2023-03-22T04:21:16.268Z,0.09
2023-03-22T04:21:27.504Z,0.09
2023-03-22T04:22:28.248Z,0.09
2023-03-22T04:23:29.155Z,0.09
2023-03-22T04:24:29.976Z,0.09
2023-03-22T04:25:30.778Z,0.09
2023-03-22T04:26:31.566Z,0.09
2023-03-22T04:27:32.150Z,0.09
2023-03-22T04:28:32.943Z,0.09
2023-03-22T04:29:33.597Z,0.09
2023-03-22T04:30:34.320Z,0.09
2023-03-22T04:31:34.555Z,0.09
2023-03-22T04:32:35.379Z,0.09
2023-03-22T04:32:43.946Z,0.09
2023-03-22T04:33:44.606Z,0.09
2023-03-22T04:34:45.200Z,0.09
2023-03-22T04:35:45.589Z,0.09
2023-03-22T04:36:46.361Z,0.09
2023-03-22T04:37:47.153Z,0.09
2023-03-22T04:38:47.874Z,0.09
2023-03-22T04:39:48.667Z,0.13
2023-03-22T04:40:49.384Z,0.09
2023-03-22T04:41:50.144Z,0.09
2023-03-22T04:42:50.949Z,0.09
2023-03-22T04:43:51.862Z,0.09
2023-03-22T04:44:00.369Z,0.09
2023-03-22T04:45:01.098Z,0.09
2023-03-22T04:46:01.840Z,0.09
2023-03-22T04:47:02.619Z,0.09
2023-03-22T04:48:02.949Z,0.09
2023-03-22T04:49:03.116Z,0.09
2023-03-22T04:50:03.895Z,0.09
2023-03-22T04:51:04.807Z,0.09
2023-03-22T04:52:05.699Z,0.09
2023-03-22T04:53:06.556Z,0.09
2023-03-22T04:54:07.504Z,0.09
2023-03-22T04:55:07.521Z,0.13
2023-03-22T04:55:16.241Z,0.09
2023-03-22T04:56:17.136Z,0.13
2023-03-22T04:57:19.055Z,0.13
2023-03-22T04:58:18.171Z,0.13
2023-03-22T04:59:18.721Z,0.13
2023-03-22T05:00:19.491Z,0.13
2023-03-22T05:01:20.433Z,0.13
2023-03-22T05:02:20.462Z,0.13
2023-03-22T05:03:21.373Z,0.13
2023-03-22T05:04:21.720Z,0.13
2023-03-22T05:05:21.946Z,0.13
2023-03-22T05:06:22.063Z,0.13
2023-03-22T05:06:31.471Z,0.13
2023-03-22T05:07:32.259Z,0.13
2023-03-22T05:08:33.085Z,0.13
2023-03-22T05:09:33.861Z,0.13
2023-03-22T05:10:34.564Z,0.13
2023-03-22T05:11:34.635Z,0.13
2023-03-22T05:12:35.502Z,0.13
2023-03-22T05:13:36.309Z,0.13
2023-03-22T05:14:37.415Z,0.13
2023-03-22T05:15:38.126Z,0.13
2023-03-22T05:16:39.043Z,0.13
2023-03-22T05:16:47.673Z,0.13
2023-03-22T05:17:48.300Z,0.13
2023-03-22T05:18:48.928Z,0.13
2023-03-22T05:19:49.607Z,0.13
2023-03-22T05:20:50.338Z,0.13
2023-03-22T05:21:51.147Z,0.13
2023-03-22T05:22:51.745Z,0.13
2023-03-22T05:23:52.414Z,0.16
2023-03-22T05:24:53.174Z,0.16
2023-03-22T05:25:53.346Z,0.16
2023-03-22T05:26:54.050Z,0.13
2023-03-22T05:27:54.645Z,0.16
2023-03-22T05:28:05.767Z,0.16
2023-03-22T05:29:06.569Z,0.13
2023-03-22T05:30:07.497Z,0.16
2023-03-22T05:31:08.210Z,0.16
2023-03-22T05:32:08.948Z,0.16
2023-03-22T05:33:09.758Z,0.16
2023-03-22T05:34:10.359Z,0.16
2023-03-22T05:35:10.753Z,0.16
2023-03-22T05:36:11.558Z,0.16
2023-03-22T05:37:12.283Z,0.16
2023-03-22T05:38:13.259Z,0.16
2023-03-22T05:38:28.451Z,0.16
2023-03-22T05:39:29.049Z,0.16
2023-03-22T05:40:29.862Z,0.16
2023-03-22T05:41:30.702Z,0.16
2023-03-22T05:42:30.822Z,0.16
2023-03-22T05:43:31.810Z,0.16
2023-03-22T05:44:31.613Z,0.23
2023-03-22T05:45:32.555Z,0.23
2023-03-22T05:46:33.528Z,0.23
2023-03-22T05:47:34.366Z,0.23
2023-03-22T05:48:35.138Z,0.23
2023-03-22T05:49:36.028Z,0.23
2023-03-22T05:49:46.402Z,0.23
2023-03-22T05:50:46.861Z,0.23
2023-03-22T05:51:47.605Z,0.23
2023-03-22T05:52:48.290Z,0.27
2023-03-22T05:53:49.049Z,0.23
2023-03-22T05:54:49.722Z,0.23
2023-03-22T05:55:50.498Z,0.27
2023-03-22T05:56:51.264Z,0.23
2023-03-22T05:57:51.899Z,0.23
2023-03-22T05:58:52.649Z,0.23
2023-03-22T05:59:53.434Z,0.23
2023-03-22T06:00:54.199Z,0.27
2023-03-22T06:01:02.831Z,0.27
2023-03-22T06:02:03.566Z,0.27
2023-03-22T06:03:04.344Z,0.27
2023-03-22T06:04:04.931Z,0.23
2023-03-22T06:05:05.722Z,0.31
2023-03-22T06:06:06.476Z,0.27
2023-03-22T06:07:07.299Z,0.27
2023-03-22T06:08:07.974Z,0.23
2023-03-22T06:09:16.821Z,0.27
2023-03-22T06:10:09.433Z,0.23
2023-03-22T06:11:10.154Z,0.27
2023-03-22T06:12:10.793Z,0.23
2023-03-22T06:12:19.436Z,0.27
2023-03-22T06:13:20.242Z,0.27
2023-03-22T06:14:21.108Z,0.27
2023-03-22T06:15:21.797Z,0.27
2023-03-22T06:16:22.617Z,0.27
2023-03-22T06:17:23.310Z,0.31
2023-03-22T06:18:24.082Z,0.31
2023-03-22T06:19:24.790Z,0.31
2023-03-22T06:20:25.651Z,0.31
2023-03-22T06:21:26.509Z,0.31
2023-03-22T06:22:27.216Z,0.31
2023-03-22T06:23:28.062Z,0.31
2023-03-22T06:23:39.792Z,0.34
2023-03-22T06:24:39.886Z,0.38
2023-03-22T06:25:40.714Z,0.38
2023-03-22T06:26:41.147Z,0.38
2023-03-22T06:27:41.898Z,0.38
2023-03-22T06:28:42.557Z,0.38
2023-03-22T06:29:43.539Z,0.38
2023-03-22T06:30:44.314Z,0.38
2023-03-22T06:31:45.180Z,0.38
2023-03-22T06:32:46.096Z,0.38
2023-03-22T06:33:46.166Z,0.38
2023-03-22T06:33:56.050Z,0.38
2023-03-22T06:34:55.839Z,0.38
2023-03-22T06:35:56.632Z,0.38
2023-03-22T06:36:57.317Z,0.38
2023-03-22T06:37:57.970Z,0.38
2023-03-22T06:38:58.628Z,0.38
2023-03-22T06:39:59.403Z,0.38
2023-03-22T06:41:00.100Z,0.38
2023-03-22T06:42:00.967Z,0.38
2023-03-22T06:43:05.150Z,0.41
2023-03-22T06:44:02.480Z,0.41
2023-03-22T06:45:03.307Z,0.41
2023-03-22T06:45:12.058Z,0.38
2023-03-22T06:46:12.868Z,0.38
2023-03-22T06:47:13.616Z,0.41
2023-03-22T06:48:14.550Z,0.38
2023-03-22T06:49:14.510Z,0.38
2023-03-22T06:50:14.480Z,0.38
2023-03-22T06:51:14.497Z,0.41
2023-03-22T06:52:15.196Z,0.41
2023-03-22T06:53:15.942Z,0.45
2023-03-22T06:54:16.544Z,0.45
2023-03-22T06:55:17.104Z,0.45
2023-03-22T06:56:17.718Z,0.45
2023-03-22T06:56:29.432Z,0.41
2023-03-22T06:57:30.189Z,0.41
2023-03-22T06:58:30.849Z,0.41
2023-03-22T06:59:31.533Z,0.38
2023-03-22T07:00:32.209Z,0.38
2023-03-22T07:01:32.254Z,0.34
2023-03-22T07:02:32.855Z,0.41
2023-03-22T07:03:33.779Z,0.45
2023-03-22T07:04:34.586Z,0.41
2023-03-22T07:05:35.347Z,0.45
2023-03-22T07:06:36.075Z,0.45
2023-03-22T07:07:36.956Z,0.45
2023-03-22T07:07:45.655Z,0.45
2023-03-22T07:08:47.998Z,0.41
2023-03-22T07:09:47.512Z,0.45
2023-03-22T07:10:48.251Z,0.45
2023-03-22T07:11:49.023Z,0.48
2023-03-22T07:12:49.767Z,0.45
2023-03-22T07:13:50.473Z,0.45
2023-03-22T07:14:51.263Z,0.45
2023-03-22T07:15:52.109Z,0.45
2023-03-22T07:16:52.861Z,0.45
2023-03-22T07:17:53.441Z,0.45
2023-03-22T07:18:02.074Z,0.45
2023-03-22T07:19:03.103Z,0.45
2023-03-22T07:20:04.065Z,0.41
2023-03-22T07:21:03.877Z,0.38
2023-03-22T07:22:04.760Z,0.38
2023-03-22T07:23:05.562Z,0.38
2023-03-22T07:24:06.475Z,0.34
2023-03-22T07:25:07.251Z,0.34
2023-03-22T07:26:07.986Z,0.38
2023-03-22T07:27:08.887Z,0.41
2023-03-22T07:28:09.678Z,0.45
2023-03-22T07:29:10.504Z,0.41
2023-03-22T07:30:11.155Z,0.45
2023-03-22T07:30:19.812Z,0.41
2023-03-22T07:31:20.652Z,0.41
2023-03-22T07:32:21.608Z,0.45
2023-03-22T07:33:22.421Z,0.48
2023-03-22T07:34:23.240Z,0.52
2023-03-22T07:35:26.771Z,0.55
2023-03-22T07:36:24.246Z,0.59
2023-03-22T07:37:25.048Z,0.55
2023-03-22T07:38:25.944Z,0.59
2023-03-22T07:39:26.658Z,0.59
2023-03-22T07:40:27.495Z,0.66
2023-03-22T07:41:28.330Z,0.59
2023-03-22T07:42:29.267Z,0.66
2023-03-22T07:42:37.918Z,0.66
2023-03-22T07:43:52.350Z,0.70
2023-03-22T07:44:39.432Z,0.66
2023-03-22T07:45:39.450Z,0.66
2023-03-22T07:46:40.570Z,0.70
2023-03-22T07:47:41.604Z,0.73
2023-03-22T07:48:41.226Z,0.73
2023-03-22T07:49:41.860Z,0.66
2023-03-22T07:50:42.696Z,0.70
2023-03-22T07:51:43.457Z,0.66
2023-03-22T07:52:44.188Z,0.66
2023-03-22T07:53:45.016Z,0.59
2023-03-22T07:53:53.753Z,0.59
2023-03-22T07:54:54.544Z,0.59
2023-03-22T07:55:55.397Z,0.59
2023-03-22T07:56:56.349Z,0.59
2023-03-22T07:57:57.421Z,0.66
2023-03-22T07:58:58.384Z,0.73
2023-03-22T07:59:59.271Z,0.66
2023-03-22T08:01:00.071Z,0.98
2023-03-22T08:02:01.007Z,0.77
2023-03-22T08:03:01.838Z,0.77
2023-03-22T08:04:02.575Z,0.59
2023-03-22T08:05:03.496Z,0.59
2023-03-22T08:05:12.244Z,0.55
2023-03-22T08:06:13.217Z,0.59
2023-03-22T08:07:14.060Z,0.55
2023-03-22T08:08:14.899Z,0.55
2023-03-22T08:09:15.742Z,0.59
2023-03-22T08:10:16.579Z,0.77
2023-03-22T08:11:17.410Z,0.66
2023-03-22T08:12:18.409Z,0.70
2023-03-22T08:13:19.148Z,0.73
2023-03-22T08:14:27.512Z,0.73
2023-03-22T08:15:22.539Z,0.95
2023-03-22T08:16:21.269Z,0.77
2023-03-22T08:16:31.462Z,0.80
2023-03-22T08:17:32.065Z,1.12
2023-03-22T08:18:32.974Z,0.91
2023-03-22T08:19:33.882Z,0.84
2023-03-22T08:20:34.602Z,1.27
2023-03-22T08:21:35.544Z,1.27
2023-03-22T08:22:35.605Z,0.84
2023-03-22T08:23:41.791Z,0.84
2023-03-22T08:24:37.245Z,0.88
2023-03-22T08:25:38.098Z,1.27
2023-03-22T08:26:38.935Z,1.16
2023-03-22T08:27:39.797Z,0.80
2023-03-22T08:27:48.969Z,0.91
2023-03-22T08:28:49.698Z,0.80
2023-03-22T08:29:49.763Z,0.95
2023-03-22T08:30:50.571Z,0.70
2023-03-22T08:31:51.471Z,0.70
2023-03-22T08:32:52.264Z,0.70
2023-03-22T08:33:53.140Z,0.70
2023-03-22T08:34:53.228Z,0.66
2023-03-22T08:35:54.024Z,0.66
2023-03-22T08:36:54.909Z,0.59
2023-03-22T08:37:55.741Z,0.70
2023-03-22T08:38:56.509Z,0.66
2023-03-22T08:39:05.736Z,0.66
2023-03-22T08:40:06.638Z,0.59
2023-03-22T08:41:06.862Z,0.59
2023-03-22T08:42:07.692Z,0.59
2023-03-22T08:43:08.466Z,0.59
2023-03-22T08:44:09.408Z,0.66
2023-03-22T08:45:10.292Z,0.80
2023-03-22T08:46:11.004Z,0.70
2023-03-22T08:47:11.046Z,0.66
2023-03-22T08:48:11.954Z,0.70
2023-03-22T08:49:12.747Z,0.70
2023-03-22T08:50:13.644Z,0.77
2023-03-22T08:50:22.819Z,0.95
2023-03-22T08:51:23.697Z,1.02
2023-03-22T08:52:24.571Z,1.12
2023-03-22T08:53:25.385Z,0.84
2023-03-22T08:54:26.212Z,0.84
2023-03-22T08:55:27.216Z,0.80
2023-03-22T08:56:28.035Z,0.77
2023-03-22T08:57:28.790Z,0.80
2023-03-22T08:58:29.661Z,0.84
2023-03-22T08:59:30.415Z,0.80
2023-03-22T09:00:45.759Z,0.80
2023-03-22T09:01:31.505Z,1.09
2023-03-22T09:01:40.151Z,0.95
2023-03-22T09:02:40.868Z,0.91
2023-03-22T09:03:41.676Z,0.80
2023-03-22T09:04:42.026Z,0.73
2023-03-22T09:05:42.921Z,0.77
2023-03-22T09:06:43.792Z,0.84
2023-03-22T09:07:44.724Z,0.80
2023-03-22T09:08:45.563Z,0.95
2023-03-22T09:09:45.728Z,0.77
2023-03-22T09:10:45.985Z,0.77
2023-03-22T09:11:46.129Z,0.77
2023-03-22T09:12:47.035Z,0.77
2023-03-22T09:12:57.746Z,0.77
2023-03-22T09:13:58.572Z,0.73
2023-03-22T09:14:59.362Z,0.73
2023-03-22T09:16:00.268Z,0.77
2023-03-22T09:17:01.054Z,0.84
2023-03-22T09:18:01.900Z,0.77
2023-03-22T09:19:02.825Z,0.73
2023-03-22T09:20:12.377Z,0.84
2023-03-22T09:21:04.455Z,0.84
2023-03-22T09:22:04.435Z,0.73
2023-03-22T09:23:05.216Z,0.73
2023-03-22T09:24:05.997Z,0.77
2023-03-22T09:24:14.701Z,0.77
2023-03-22T09:25:14.918Z,0.80
2023-03-22T09:26:14.956Z,0.80
2023-03-22T09:27:15.772Z,1.02
2023-03-22T09:28:16.604Z,1.09
2023-03-22T09:29:17.238Z,1.09
2023-03-22T09:30:18.044Z,0.91
2023-03-22T09:31:20.552Z,0.95
2023-03-22T09:32:19.814Z,1.09
2023-03-22T09:33:19.897Z,1.59
2023-03-22T09:34:20.214Z,0.80
2023-03-22T09:35:20.454Z,1.09
2023-03-22T09:35:29.136Z,0.91
2023-03-22T09:36:29.938Z,1.34
2023-03-22T09:37:30.819Z,1.59
2023-03-22T09:38:31.594Z,1.02
2023-03-22T09:39:31.656Z,1.20
2023-03-22T09:40:32.436Z,1.16
2023-03-22T09:41:33.256Z,0.95
2023-03-22T09:42:34.059Z,1.62
2023-03-22T09:43:34.111Z,1.77
2023-03-22T09:44:35.036Z,1.69
2023-03-22T09:45:35.881Z,1.62
2023-03-22T09:46:36.869Z,1.62
2023-03-22T09:46:45.514Z,1.62
2023-03-22T09:47:46.363Z,1.41
2023-03-22T09:48:48.261Z,1.34
2023-03-22T09:49:53.433Z,1.44
2023-03-22T09:50:46.775Z,1.52
2023-03-22T09:51:47.594Z,1.52
2023-03-22T09:52:48.339Z,1.55
2023-03-22T09:53:49.134Z,1.41
2023-03-22T09:54:52.600Z,1.52
2023-03-22T09:55:50.638Z,1.41
2023-03-22T09:56:51.568Z,1.12
2023-03-22T09:57:52.390Z,0.88
2023-03-22T09:58:01.182Z,1.52
2023-03-22T09:59:01.947Z,1.41
2023-03-22T10:00:02.821Z,1.52
2023-03-22T10:01:03.759Z,1.41
2023-03-22T10:02:05.138Z,1.16
2023-03-22T10:03:05.280Z,1.52
2023-03-22T10:04:05.452Z,1.09
2023-03-22T10:05:05.526Z,1.73
2023-03-22T10:06:05.817Z,1.66
2023-03-22T10:07:06.076Z,1.34
2023-03-22T10:08:06.346Z,1.41
2023-03-22T10:09:07.180Z,1.55
2023-03-22T10:10:08.049Z,1.59
2023-03-22T10:10:17.226Z,1.62
2023-03-22T10:11:23.623Z,1.55
2023-03-22T10:12:19.106Z,1.30
2023-03-22T10:13:20.001Z,1.09
2023-03-22T10:14:20.661Z,1.30
2023-03-22T10:15:20.863Z,1.12
2023-03-22T10:16:21.701Z,1.62
2023-03-22T10:17:22.743Z,1.52
2023-03-22T10:18:23.009Z,1.55
2023-03-22T10:19:23.113Z,1.59
2023-03-22T10:20:24.033Z,1.52
2023-03-22T10:21:24.738Z,1.73
2023-03-22T10:21:33.421Z,1.77
2023-03-22T10:22:34.648Z,1.55
2023-03-22T10:23:34.403Z,1.37
2023-03-22T10:24:35.221Z,1.16
2023-03-22T10:25:35.872Z,1.12
2023-03-22T10:26:36.654Z,1.37
2023-03-22T10:27:37.513Z,1.27
2023-03-22T10:28:38.285Z,1.16
2023-03-22T10:29:38.590Z,1.09
2023-03-22T10:30:39.105Z,1.09
2023-03-22T10:31:39.654Z,1.02
2023-03-22T10:31:48.428Z,1.09
2023-03-22T10:32:57.473Z,1.02
2023-03-22T10:33:49.974Z,1.20
2023-03-22T10:34:50.740Z,1.12
2023-03-22T10:35:50.795Z,1.02
2023-03-22T10:36:51.646Z,1.09
2023-03-22T10:37:52.689Z,1.02
2023-03-22T10:38:53.555Z,1.02
2023-03-22T10:39:53.569Z,0.98
2023-03-22T10:40:54.508Z,0.95
2023-03-22T10:41:57.848Z,0.95
2023-03-22T10:42:56.260Z,0.95
2023-03-22T10:43:05.444Z,0.95
2023-03-22T10:44:06.269Z,0.95
2023-03-22T10:45:07.086Z,0.95
2023-03-22T10:46:07.943Z,0.95
2023-03-22T10:47:08.916Z,0.91
2023-03-22T10:48:08.810Z,0.95
2023-03-22T10:49:08.922Z,0.91
2023-03-22T10:50:09.797Z,0.91
2023-03-22T10:51:10.520Z,0.84
2023-03-22T10:52:11.383Z,0.88
2023-03-22T10:53:12.385Z,0.91
2023-03-22T10:54:13.204Z,0.91
2023-03-22T10:54:21.855Z,0.91
2023-03-22T10:55:22.008Z,0.91
2023-03-22T10:56:22.842Z,0.95
2023-03-22T10:57:23.691Z,1.02
2023-03-22T10:58:24.512Z,0.98
2023-03-22T10:59:25.014Z,0.91
2023-03-22T11:00:25.818Z,0.91
2023-03-22T11:01:26.785Z,0.88
2023-03-22T11:02:27.696Z,0.91
2023-03-22T11:03:27.788Z,0.91
2023-03-22T11:04:28.219Z,0.91
2023-03-22T11:05:29.131Z,0.95
2023-03-22T11:05:38.456Z,0.91
2023-03-22T11:06:38.708Z,0.88
2023-03-22T11:07:38.892Z,0.84
2023-03-22T11:08:38.977Z,0.84
2023-03-22T11:09:39.940Z,0.84
2023-03-22T11:10:40.889Z,0.84
2023-03-22T11:11:41.746Z,0.84
2023-03-22T11:12:42.614Z,0.91
2023-03-22T11:13:43.504Z,0.91
2023-03-22T11:14:44.226Z,0.95
2023-03-22T11:15:44.992Z,0.95
2023-03-22T11:16:45.647Z,0.95
2023-03-22T11:16:54.790Z,0.98
2023-03-22T11:17:55.512Z,1.30
2023-03-22T11:18:56.416Z,1.34
2023-03-22T11:19:57.234Z,1.12
2023-03-22T11:20:57.919Z,1.12
2023-03-22T11:21:58.873Z,0.95
2023-03-22T11:22:59.640Z,0.84
2023-03-22T11:23:59.757Z,0.88
2023-03-22T11:25:00.422Z,0.95
2023-03-22T11:26:00.756Z,0.91
2023-03-22T11:27:01.556Z,0.91
2023-03-22T11:27:10.733Z,0.91
2023-03-22T11:28:10.826Z,0.95
2023-03-22T11:29:11.700Z,0.95
2023-03-22T11:30:12.440Z,1.02
2023-03-22T11:31:13.254Z,1.02
2023-03-22T11:32:14.269Z,0.98
2023-03-22T11:33:14.432Z,0.95
2023-03-22T11:34:14.704Z,0.95
2023-03-22T11:35:14.913Z,1.02
2023-03-22T11:36:15.049Z,0.95
2023-03-22T11:37:18.089Z,0.95
2023-03-22T11:38:16.736Z,0.98
2023-03-22T11:38:24.775Z,0.95
2023-03-22T11:39:25.773Z,1.02
2023-03-22T11:40:26.459Z,1.09
2023-03-22T11:41:27.347Z,1.02
2023-03-22T11:42:28.128Z,1.02
2023-03-22T11:43:28.191Z,1.09
2023-03-22T11:44:29.066Z,1.16
2023-03-22T11:45:29.862Z,1.09
2023-03-22T11:46:30.653Z,1.09
2023-03-22T11:47:31.418Z,1.09
2023-03-22T11:48:32.321Z,1.02
2023-03-22T11:48:41.059Z,1.02
2023-03-22T11:49:41.772Z,1.02
2023-03-22T11:50:42.981Z,0.95
2023-03-22T11:51:43.326Z,0.98
2023-03-22T11:52:44.214Z,1.02
2023-03-22T11:53:45.101Z,1.09
2023-03-22T11:54:45.137Z,1.16
2023-03-22T11:55:45.232Z,1.20
2023-03-22T11:56:45.348Z,1.12
2023-03-22T11:57:46.227Z,1.16
2023-03-22T11:58:47.250Z,1.02
2023-03-22T11:59:48.119Z,0.95
2023-03-22T11:59:56.793Z,0.95
2023-03-22T12:00:57.554Z,0.91
2023-03-22T12:01:58.542Z,1.02
2023-03-22T12:02:59.587Z,0.91
2023-03-22T12:04:00.445Z,1.02
2023-03-22T12:05:01.418Z,0.98
2023-03-22T12:06:02.282Z,0.95
2023-03-22T12:07:02.549Z,0.98
2023-03-22T12:08:02.646Z,1.09
2023-03-22T12:09:03.506Z,1.12
2023-03-22T12:10:03.971Z,1.12
2023-03-22T12:11:04.851Z,1.02
2023-03-22T12:12:05.794Z,0.95
2023-03-22T12:12:14.480Z,0.91
2023-03-22T12:13:15.248Z,0.91
2023-03-22T12:14:15.564Z,0.91
2023-03-22T12:15:16.490Z,0.91
2023-03-22T12:16:17.604Z,0.95
2023-03-22T12:17:17.623Z,0.98
2023-03-22T12:18:18.545Z,1.16
2023-03-22T12:19:19.255Z,1.16
2023-03-22T12:20:20.111Z,1.12
2023-03-22T12:21:20.412Z,1.02
2023-03-22T12:22:21.203Z,1.02
2023-03-22T12:23:21.331Z,0.95
2023-03-22T12:23:30.032Z,0.95
2023-03-22T12:24:30.845Z,0.91
2023-03-22T12:25:30.976Z,0.91
2023-03-22T12:26:31.480Z,0.91
2023-03-22T12:27:32.321Z,0.95
2023-03-22T12:28:33.106Z,0.95
2023-03-22T12:29:33.900Z,0.98
2023-03-22T12:30:34.819Z,0.95